Share

Ava, OH

7:55 PM EDT on April 24, 2014 (GMT -0400)
Zanesville Municipal (KZZV) Elev 899 ft | 39.94 °N, 81.89 °W | Change Station

Current weather conditions updated 1 hour ago

Clear
Clear
61 °F
Feels Like 61 °F
N
9
Wind Variable Wind from East
Sunrise 6:35 AM
Sunset 8:13 PM
Moon Waning Crescent

Tomorrow is forecast to be Warmer than today. Rain with a few rumbles of thunder.

Pressure 29.96 in
Visibility 10.0 miles
Clouds Clear
Dew Point 20 °F
Humidity 21%
Rainfall 0.00 in
Snow Depth Not available.
UV 1 out of 16
Pollen 10.20 out of 12
Air Quality Not available.
Flu Activity Local Activity
METAR KZZV 242253Z AUTO 09008KT 10SM CLR 16/M07 A2996 RMK AO2 SLP146 T01611067 TSNO

More Conditions Fewer Conditions

Pressure 29.96 in
Visibility 10.0 miles
Clouds Clear
Dew Point 20 °F
Humidity 21%
Rainfall 0.00 in
Snow Depth Not available.
UV 1 out of 16
Pollen 10.20 out of 12
Air Quality Not available.
Flu Activity Local Activity
METAR KZZV 242253Z AUTO 09008KT 10SM CLR 16/M07 A2996 RMK AO2 SLP146 T01611067 TSNO

More Conditions Fewer Conditions

10-Day Weather Forecast

Almanac

Astronomy

Apr. 24, 2014 Rise Set
Actual Time 6:35 AM EDT 8:13 PM EDT
Civil Twilight 6:07 AM EDT 8:42 PM EDT
Nautical Twilight 5:32 AM EDT 9:17 PM EDT
Astronomical Twilight 4:55 AM EDT 9:54 PM EDT
Moon 3:45 AM EDT 3:28 PM EDT
Length of Visible Light 14h 35m
Length of Day
13h 37m
Tomorrow will be 2m 21s longer.
Waning Crescent, 21% of the Moon is Illuminated
Today
Waning Crescent
Apr 29
New
May 6
First Quarter
May 14
Full
May 21
Last Quarter

Today's Extremes

State Highs State Lows

Community

  • Jone Runs Falls
    Jone Runs Falls
  • Easter in Shenandoah National Park
    Easter in Shenandoah National Park
  • Sunset at Apalachicola Bay, Florida
    Sunset at Apalachicola Bay, Florida
  • Clouds mov'n in
    Clouds mov'n in
  • Stacked
    Stacked

WunderPhotos

Upload Photos

1,704,746 photos uploaded!

Nearby

Snow Depth

Station Depth Elevation
No new snow has been reported.

Coastal Water Temperatures

Place Temperature
No Stations Reporting

Earthquake Activity

City Distance Mag. Time & Date
No recent earthquake activity has been reported nearby.
Minimum magnitude displayed is 2.5.

Nearby Weather Stations

Station Location Temp. Dew Point Humidity Wind Precip. Elev Updated Type
BEVERLY, OH 62.2 °F 21 °F 20% North  at  0.0 mph 0.00 in / hr 702 ft 7:55 PM EDT Rapid Fire
Waterford, Waterford, OH 61.2 °F 33 °F 34% East  at  0.0 mph 0.00 in / hr 854 ft 7:50 PM EDT Normal
Waterford, OH 60.1 °F 26 °F 27% South  at  2.0 mph 0.00 in / hr 774 ft 6:41 PM CDT Normal
APRSWXNET Zanesville OH , Zanesville, OH 60 °F 27 °F 28% ESE  at  2 mph 0.00 in / hr 839 ft 7:04 PM EDT MADIS

Show More Stations Show Fewer Stations

What do you think?

We're not finished. Please let us know what you like, what you don't like, and what you are still missing.